Airfield :
LOGIN :

Register | Disclaimer

   EN    FR    IT 

 










Legend :    VFR   Marginal VFR   IFR   Intensive IFR   Very Intensive IFR
Visi :
Ceiling :
>= 8 km
>= 3000ft
5 to 8 km
1000 to 3000 ft
1500m to 5 km
500 to 1000 ft
800 to 1500m
200 to 500 ft
< 800m
< 200 ft
Symbols :   Thunderstorms  Fog  Heavy snow  Heavy precipitations  Wind > 20 kt
SIGMETs :     Misc.  Thunderstorms  Icing  Turbulence  Mountain Waves  Volcanic Ashes







- Airport Elevation : 42 ft
- IATA code : CAL
- Download approach charts


EGEC - Campbeltown

CURRENT METAR :
  • 220850Z 34002KT 9999 FEW012 BKN040 06/06 Q0986

EXPIRED METARs :
  • 220820Z 16001KT 9999 FEW012 BKN040 06/06 Q0987
  • 220750Z 11001KT 9000 FEW011 BKN042 06/06 Q0987

TAF TAF EGEC
Valid from the 22 at 09:00 until the 22 at 18:00 UTC


220827Z 2209/2218 01005KT 9999 SCT011
TEMPO 2209/2215 4000 RADZ BR BKN012
No reported NOTAMs for that airfield.
1 SIGMET reported for the Scottish FIR (EGPX) :
 
Severe mountain waves
EGPX SIGMET 02 VALID 220600/221000 EGRR
EGPX SCOTTISH FIR SEV MTW FCST WI N5500 E00045 - N5500 W00415 - N5637 W00600 - N5635 E00000 - N5500 E00045 FL040/180 STNR NC=



MET'MAP, your aeronautical weather chart ! - Copyright ORBIFLY December 2007 - Disclaimer

ORBIFLY MET'MAP TEAM :

Programming & Development : Alexandra Zaïnal
Concept & Development : Baudouin d'Aumeries
Co-Development & Prog : Marc-Olivier Méhu
Technical & hardware support : Manuel Goepfert

Contact : metmap@orbifly.com




SOURCES & CREDITS :

   NOAA